Time;durP1;ratioP1;P1;durP2;ratioP2;P2;SDS_P1;SDS_P2;PMS_P1;PMS_P2;Temp;Humidity;BMP_temperature;BMP_pressure;BME280_temperature;BME280_humidity;BME280_pressure;Samples;Min_cycle;Max_cycle;Signal;HPM_P1;HPM_P2
2021/03/20 00:00:06;;;;;;;7.43;5.00;;;;;;;;;;5099329;28;20881;-76
2021/03/20 00:02:33;;;;;;;7.20;3.80;;;;;;;;;;5099415;28;20890;-76
2021/03/20 00:05:01;;;;;;;7.40;4.50;;;;;;;;;;5099448;28;20463;-76
2021/03/20 00:07:28;;;;;;;6.43;4.63;;;;;;;;;;5099392;28;20462;-76
2021/03/20 00:09:55;;;;;;;9.23;4.77;;;;;;;;;;5098969;28;20526;-76
2021/03/20 00:12:22;;;;;;;6.63;4.97;;;;;;;;;;5099082;28;20443;-76
2021/03/20 00:14:49;;;;;;;4.77;3.93;;;;;;;;;;5099185;28;20517;-76
2021/03/20 00:17:16;;;;;;;7.03;5.17;;;;;;;;;;5111873;28;20471;-76
2021/03/20 00:19:43;;;;;;;7.30;4.43;;;;;;;;;;5118663;28;20451;-76
2021/03/20 00:22:11;;;;;;;4.77;4.27;;;;;;;;;;5119450;28;20530;-76
2021/03/20 00:24:38;;;;;;;6.43;4.40;;;;;;;;;;5119155;28;20466;-76
2021/03/20 00:27:05;;;;;;;5.87;4.57;;;;;;;;;;5119187;28;20533;-76
2021/03/20 00:29:32;;;;;;;5.63;3.80;;;;;;;;;;5119260;28;20526;-76
2021/03/20 00:31:59;;;;;;;4.90;4.00;;;;;;;;;;5119176;28;20451;-76
2021/03/20 00:34:27;;;;;;;4.83;4.13;;;;;;;;;;5115359;27;20471;-77
2021/03/20 00:36:54;;;;;;;5.53;4.00;;;;;;;;;;5104735;28;20440;-76
2021/03/20 00:39:22;;;;;;;6.33;4.47;;;;;;;;;;5131387;27;21226;-76
2021/03/20 00:41:49;;;;;;;6.10;4.27;;;;;;;;;;5134617;27;20477;-76
2021/03/20 00:44:16;;;;;;;6.23;4.50;;;;;;;;;;5124215;27;20486;-76
2021/03/20 00:46:43;;;;;;;5.87;4.60;;;;;;;;;;5133830;27;20487;-76
2021/03/20 00:49:10;;;;;;;6.50;4.63;;;;;;;;;;5132541;27;20996;-76
2021/03/20 00:51:37;;;;;;;6.43;4.50;;;;;;;;;;5132802;27;20528;-75
2021/03/20 00:54:04;;;;;;;6.50;4.17;;;;;;;;;;5128404;27;20913;-76
2021/03/20 00:56:32;;;;;;;5.47;3.97;;;;;;;;;;5130339;27;20445;-76
2021/03/20 00:58:59;;;;;;;6.07;4.17;;;;;;;;;;5125026;27;20525;-76
2021/03/20 01:01:26;;;;;;;6.47;4.27;;;;;;;;;;5127696;27;20505;-76
2021/03/20 01:03:53;;;;;;;4.87;4.17;;;;;;;;;;5118729;28;20474;-76
2021/03/20 01:06:21;;;;;;;6.43;4.37;;;;;;;;;;5118775;28;20534;-75
2021/03/20 01:08:50;;;;;;;4.20;3.70;;;;;;;;;;5118645;28;20453;-76
2021/03/20 01:11:18;;;;;;;7.80;4.43;;;;;;;;;;5118430;28;20451;-76
2021/03/20 01:13:46;;;;;;;7.60;4.73;;;;;;;;;;5118597;27;20964;-76
2021/03/20 01:16:13;;;;;;;6.40;4.37;;;;;;;;;;5118592;28;20542;-75
2021/03/20 01:18:41;;;;;;;7.07;4.53;;;;;;;;;;5118403;28;20447;-75
2021/03/20 01:21:09;;;;;;;6.80;4.23;;;;;;;;;;5118587;28;20439;-76
2021/03/20 01:23:36;;;;;;;4.73;4.20;;;;;;;;;;5118393;28;21266;-75
2021/03/20 01:26:03;;;;;;;6.80;4.77;;;;;;;;;;5118233;28;20488;-76
2021/03/20 01:28:31;;;;;;;5.33;4.00;;;;;;;;;;5118295;28;20510;-76
2021/03/20 01:31:00;;;;;;;6.53;4.90;;;;;;;;;;5117941;28;20549;-76
2021/03/20 01:33:27;;;;;;;4.40;4.00;;;;;;;;;;5118259;27;20881;-77
2021/03/20 01:35:54;;;;;;;4.83;3.33;;;;;;;;;;5108852;28;20459;-76
2021/03/20 01:38:21;;;;;;;5.60;4.40;;;;;;;;;;5098075;28;20531;-76
2021/03/20 01:40:51;;;;;;;5.93;3.90;;;;;;;;;;5097491;28;20950;-77
2021/03/20 01:43:20;;;;;;;7.13;4.03;;;;;;;;;;5097694;28;20443;-77
2021/03/20 01:45:47;;;;;;;6.67;4.70;;;;;;;;;;5102856;28;20497;-76
2021/03/20 01:48:18;;;;;;;6.50;4.10;;;;;;;;;;5104180;28;20472;-76
2021/03/20 01:50:47;;;;;;;6.17;4.50;;;;;;;;;;5097763;28;20463;-76
2021/03/20 01:53:20;;;;;;;6.03;4.60;;;;;;;;;;5097882;28;20475;-75
2021/03/20 01:55:47;;;;;;;5.60;4.03;;;;;;;;;;5097302;28;20561;-76
2021/03/20 01:58:14;;;;;;;7.67;4.90;;;;;;;;;;5097553;28;20454;-77
2021/03/20 02:00:42;;;;;;;6.30;4.60;;;;;;;;;;5097843;28;20451;-77
2021/03/20 02:03:11;;;;;;;5.30;4.17;;;;;;;;;;5097826;28;20439;-77
2021/03/20 02:05:39;;;;;;;7.00;4.70;;;;;;;;;;5097537;28;20821;-75
2021/03/20 02:08:07;;;;;;;6.57;4.60;;;;;;;;;;5098393;28;20480;-75
2021/03/20 02:10:36;;;;;;;6.07;4.73;;;;;;;;;;5099008;28;20799;-76
2021/03/20 02:13:06;;;;;;;5.80;4.60;;;;;;;;;;5098043;28;20443;-76
2021/03/20 02:15:45;;;;;;;4.83;3.63;;;;;;;;;;5098000;28;20487;-76
2021/03/20 02:18:16;;;;;;;4.83;4.43;;;;;;;;;;5118189;28;20521;-76
2021/03/20 02:20:51;;;;;;;5.33;4.20;;;;;;;;;;5118202;28;20474;-75
2021/03/20 02:23:33;;;;;;;7.70;4.87;;;;;;;;;;5118067;28;20478;-75
2021/03/20 02:26:21;;;;;;;5.87;3.97;;;;;;;;;;5113070;28;20879;-75
2021/03/20 02:28:58;;;;;;;5.80;4.67;;;;;;;;;;5082219;28;20566;-75
2021/03/20 02:31:40;;;;;;;6.07;4.87;;;;;;;;;;5118165;28;20645;-75
2021/03/20 02:34:15;;;;;;;6.43;4.63;;;;;;;;;;5113547;28;20490;-75
2021/03/20 02:36:45;;;;;;;6.77;4.40;;;;;;;;;;5104828;28;20438;-75
2021/03/20 02:39:16;;;;;;;5.87;4.70;;;;;;;;;;5097207;28;20478;-76
2021/03/20 02:41:47;;;;;;;7.67;5.10;;;;;;;;;;5097498;28;20444;-76
2021/03/20 02:44:16;;;;;;;7.57;5.33;;;;;;;;;;5099796;28;20443;-75
2021/03/20 02:46:45;;;;;;;6.80;4.30;;;;;;;;;;5111967;28;21001;-75
2021/03/20 02:49:16;;;;;;;7.93;4.87;;;;;;;;;;5101024;28;20456;-75
2021/03/20 02:51:45;;;;;;;9.77;4.63;;;;;;;;;;5101009;28;20448;-74
2021/03/20 02:54:15;;;;;;;5.20;4.03;;;;;;;;;;5100626;28;20519;-74
2021/03/20 02:56:44;;;;;;;5.87;4.90;;;;;;;;;;5100611;28;20890;-73
2021/03/20 02:59:12;;;;;;;5.73;3.90;;;;;;;;;;5100661;28;20448;-74
2021/03/20 03:01:40;;;;;;;6.17;4.03;;;;;;;;;;5100581;28;20515;-73
2021/03/20 03:04:09;;;;;;;8.97;5.07;;;;;;;;;;5100774;28;20467;-73
2021/03/20 03:06:38;;;;;;;6.83;4.60;;;;;;;;;;5100795;28;20564;-73
2021/03/20 03:09:08;;;;;;;6.83;4.53;;;;;;;;;;5100437;28;20523;-74
2021/03/20 03:11:39;;;;;;;4.90;4.23;;;;;;;;;;5107739;28;20879;-73
2021/03/20 03:14:08;;;;;;;5.13;4.57;;;;;;;;;;5120585;28;20484;-73
2021/03/20 03:16:37;;;;;;;6.67;4.50;;;;;;;;;;5120855;27;20538;-74
2021/03/20 03:19:07;;;;;;;6.77;4.67;;;;;;;;;;5120744;28;20451;-74
2021/03/20 03:21:37;;;;;;;7.47;4.53;;;;;;;;;;5120927;28;20486;-73
2021/03/20 03:24:07;;;;;;;7.67;4.33;;;;;;;;;;5120396;28;20442;-74
2021/03/20 03:26:36;;;;;;;5.23;4.50;;;;;;;;;;5120683;28;20466;-73
2021/03/20 03:29:06;;;;;;;6.03;4.50;;;;;;;;;;5120384;28;20557;-74
2021/03/20 03:31:35;;;;;;;6.07;4.77;;;;;;;;;;5120792;28;20478;-74
2021/03/20 03:34:03;;;;;;;7.03;4.67;;;;;;;;;;5116828;28;20494;-74
2021/03/20 03:36:33;;;;;;;4.73;4.13;;;;;;;;;;5099868;28;20444;-74
2021/03/20 03:39:08;;;;;;;7.10;4.33;;;;;;;;;;5099845;28;20475;-74
2021/03/20 03:41:40;;;;;;;6.67;4.80;;;;;;;;;;5100052;28;20439;-73
2021/03/20 03:44:07;;;;;;;5.87;4.60;;;;;;;;;;5106676;28;20613;-73
2021/03/20 03:46:35;;;;;;;7.10;4.80;;;;;;;;;;5120270;28;20477;-74
2021/03/20 03:49:04;;;;;;;7.47;4.70;;;;;;;;;;5099775;28;20444;-74
2021/03/20 03:51:31;;;;;;;5.53;4.13;;;;;;;;;;5099950;28;20454;-74
2021/03/20 03:54:00;;;;;;;8.03;4.50;;;;;;;;;;5099263;28;20478;-74
2021/03/20 03:56:33;;;;;;;6.40;4.60;;;;;;;;;;5099513;28;20638;-74
2021/03/20 03:59:08;;;;;;;5.37;4.10;;;;;;;;;;5099756;28;20479;-74
2021/03/20 04:01:41;;;;;;;6.30;3.77;;;;;;;;;;5099371;28;20535;-74
2021/03/20 04:04:14;;;;;;;5.27;4.17;;;;;;;;;;5099363;28;20808;-74
2021/03/20 04:06:50;;;;;;;6.93;4.83;;;;;;;;;;5099567;28;20463;-74
2021/03/20 04:09:22;;;;;;;6.40;4.63;;;;;;;;;;5099059;28;20539;-74
2021/03/20 04:11:54;;;;;;;5.87;4.37;;;;;;;;;;5107056;28;20485;-74
2021/03/20 04:14:25;;;;;;;6.57;4.30;;;;;;;;;;5119342;28;20577;-74
2021/03/20 04:16:57;;;;;;;5.47;4.63;;;;;;;;;;5119784;28;20470;-74
2021/03/20 04:19:27;;;;;;;6.60;4.50;;;;;;;;;;5119856;28;20451;-74
2021/03/20 04:21:56;;;;;;;6.87;4.17;;;;;;;;;;5119745;28;20937;-74
2021/03/20 04:24:24;;;;;;;6.93;4.70;;;;;;;;;;5119015;28;20492;-74
2021/03/20 04:26:53;;;;;;;5.80;4.43;;;;;;;;;;5119548;28;20525;-74
2021/03/20 04:29:29;;;;;;;8.57;3.90;;;;;;;;;;5119170;27;20529;-74
2021/03/20 04:31:59;;;;;;;7.17;4.27;;;;;;;;;;5119543;28;20449;-74
2021/03/20 04:34:29;;;;;;;5.80;4.53;;;;;;;;;;5115009;28;20482;-74
2021/03/20 04:36:58;;;;;;;6.73;5.10;;;;;;;;;;5104696;28;20443;-74
2021/03/20 04:39:27;;;;;;;6.87;4.23;;;;;;;;;;5098479;28;20527;-74
2021/03/20 04:42:12;;;;;;;6.87;5.07;;;;;;;;;;5098818;28;20493;-74
2021/03/20 04:44:42;;;;;;;5.57;4.37;;;;;;;;;;5098556;28;20877;-74
2021/03/20 04:47:13;;;;;;;8.63;5.07;;;;;;;;;;5110597;28;20475;-74
2021/03/20 04:49:43;;;;;;;5.80;4.43;;;;;;;;;;5098534;28;20455;-74
2021/03/20 04:52:12;;;;;;;8.23;4.40;;;;;;;;;;5098444;28;20879;-74
2021/03/20 04:54:39;;;;;;;7.13;4.67;;;;;;;;;;5098271;28;20487;-74
2021/03/20 04:57:12;;;;;;;6.57;4.70;;;;;;;;;;5098330;28;20479;-74
2021/03/20 04:59:47;;;;;;;7.17;4.50;;;;;;;;;;5098510;28;20505;-74
2021/03/20 05:02:17;;;;;;;5.60;4.93;;;;;;;;;;5098793;28;20471;-74
2021/03/20 05:04:46;;;;;;;6.23;4.57;;;;;;;;;;5098459;28;20468;-74
2021/03/20 05:07:14;;;;;;;8.57;4.87;;;;;;;;;;5097964;28;20475;-75
2021/03/20 05:09:41;;;;;;;5.87;4.30;;;;;;;;;;5097889;28;20882;-75
2021/03/20 05:12:16;;;;;;;5.53;4.30;;;;;;;;;;5098442;28;20490;-74
2021/03/20 05:14:47;;;;;;;7.80;4.50;;;;;;;;;;5097879;28;20509;-74
2021/03/20 05:17:15;;;;;;;8.57;4.63;;;;;;;;;;5110475;28;20439;-74
2021/03/20 05:19:43;;;;;;;6.87;4.37;;;;;;;;;;5118628;28;20453;-74
2021/03/20 05:22:13;;;;;;;6.63;4.40;;;;;;;;;;5118412;28;20869;-74
2021/03/20 05:24:40;;;;;;;9.70;5.23;;;;;;;;;;5118202;28;20458;-74
2021/03/20 05:27:09;;;;;;;7.83;4.60;;;;;;;;;;5118543;28;20469;-74
2021/03/20 05:29:36;;;;;;;6.30;4.50;;;;;;;;;;5118328;28;20974;-74
2021/03/20 05:32:05;;;;;;;7.87;4.57;;;;;;;;;;5118499;28;20443;-74
2021/03/20 05:34:34;;;;;;;8.30;4.97;;;;;;;;;;5114336;28;20937;-74
2021/03/20 05:37:02;;;;;;;5.73;4.40;;;;;;;;;;5103355;28;20444;-74
2021/03/20 05:39:29;;;;;;;5.50;4.60;;;;;;;;;;5097540;28;20534;-74
2021/03/20 05:42:03;;;;;;;6.57;5.40;;;;;;;;;;5097712;28;20530;-74
2021/03/20 05:44:40;;;;;;;7.13;5.03;;;;;;;;;;5097947;28;20459;-74
2021/03/20 05:47:12;;;;;;;6.80;4.73;;;;;;;;;;5110123;28;20471;-74
2021/03/20 05:49:46;;;;;;;9.03;4.87;;;;;;;;;;5097755;28;20919;-74
2021/03/20 05:52:18;;;;;;;7.37;5.30;;;;;;;;;;5097311;28;20542;-75
2021/03/20 05:54:56;;;;;;;12.03;4.70;;;;;;;;;;5097222;28;20522;-74
2021/03/20 05:57:26;;;;;;;6.27;4.27;;;;;;;;;;5097848;28;20467;-75
2021/03/20 05:59:57;;;;;;;7.33;5.03;;;;;;;;;;5097744;28;20451;-74
2021/03/20 06:02:33;;;;;;;6.53;5.17;;;;;;;;;;5097623;28;20871;-74
2021/03/20 06:05:05;;;;;;;5.83;4.73;;;;;;;;;;5097441;28;20463;-75
2021/03/20 06:07:46;;;;;;;6.97;4.90;;;;;;;;;;5097597;28;20519;-75
2021/03/20 06:10:20;;;;;;;9.37;5.27;;;;;;;;;;5105315;28;20471;-73
2021/03/20 06:12:52;;;;;;;5.83;4.50;;;;;;;;;;5117936;28;20481;-72
2021/03/20 06:15:23;;;;;;;8.07;4.57;;;;;;;;;;5117992;28;20522;-72
2021/03/20 06:17:57;;;;;;;6.80;4.90;;;;;;;;;;5118122;28;20477;-71
2021/03/20 06:20:30;;;;;;;11.13;4.33;;;;;;;;;;5121860;28;20453;-72
2021/03/20 06:23:24;;;;;;;10.20;5.10;;;;;;;;;;5121984;28;20457;-72
2021/03/20 06:25:58;;;;;;;8.00;4.70;;;;;;;;;;5121440;28;20957;-74
2021/03/20 06:28:28;;;;;;;7.73;5.30;;;;;;;;;;5121573;28;20500;-72
2021/03/20 06:30:56;;;;;;;5.33;4.37;;;;;;;;;;5121553;28;20478;-72
2021/03/20 06:33:28;;;;;;;6.67;4.87;;;;;;;;;;5121797;28;20442;-72
2021/03/20 06:36:02;;;;;;;6.73;4.43;;;;;;;;;;5110648;28;20513;-72
2021/03/20 06:38:39;;;;;;;6.83;4.67;;;;;;;;;;5100978;28;20526;-72
2021/03/20 06:41:09;;;;;;;6.27;4.90;;;;;;;;;;5101132;28;20442;-72
2021/03/20 06:43:48;;;;;;;6.37;5.13;;;;;;;;;;5101194;28;20447;-72
2021/03/20 06:46:16;;;;;;;7.50;4.57;;;;;;;;;;5109924;28;20598;-72
2021/03/20 06:48:44;;;;;;;8.00;4.93;;;;;;;;;;5102941;28;20450;-73
2021/03/20 06:51:12;;;;;;;9.97;5.10;;;;;;;;;;5100608;28;20480;-73
2021/03/20 06:53:46;;;;;;;7.03;4.93;;;;;;;;;;5100388;28;20475;-72
2021/03/20 06:56:14;;;;;;;5.83;4.93;;;;;;;;;;5107333;28;20539;-72
2021/03/20 06:58:43;;;;;;;6.37;5.00;;;;;;;;;;5112451;28;20930;-72
2021/03/20 07:01:14;;;;;;;7.53;4.70;;;;;;;;;;5110414;28;20442;-72
2021/03/20 07:03:54;;;;;;;7.07;4.73;;;;;;;;;;5111514;28;20519;-72
2021/03/20 07:06:28;;;;;;;6.43;4.43;;;;;;;;;;5109749;28;20522;-73
2021/03/20 07:08:56;;;;;;;8.60;5.03;;;;;;;;;;5111063;28;21233;-73
2021/03/20 07:11:26;;;;;;;8.00;4.80;;;;;;;;;;5111312;28;20446;-73
2021/03/20 07:14:33;;;;;;;9.43;5.43;;;;;;;;;;5114806;28;20458;-73
2021/03/20 07:17:01;;;;;;;5.47;4.37;;;;;;;;;;5118171;28;20455;-73
2021/03/20 07:19:29;;;;;;;6.33;4.40;;;;;;;;;;5118219;28;20443;-73
2021/03/20 07:22:05;;;;;;;5.37;4.33;;;;;;;;;;5118521;27;20801;-72
2021/03/20 07:24:34;;;;;;;6.67;4.77;;;;;;;;;;5115306;28;20889;-73
2021/03/20 07:27:04;;;;;;;6.37;4.83;;;;;;;;;;5114039;28;20445;-73
2021/03/20 07:29:40;;;;;;;6.80;4.77;;;;;;;;;;5109565;28;20546;-73
2021/03/20 07:32:07;;;;;;;6.77;4.83;;;;;;;;;;5111673;28;20490;-73
2021/03/20 07:34:36;;;;;;;7.63;5.10;;;;;;;;;;5113691;28;20474;-72
2021/03/20 07:37:05;;;;;;;8.10;5.13;;;;;;;;;;5117533;28;20938;-74
2021/03/20 07:39:39;;;;;;;8.83;5.43;;;;;;;;;;5114294;28;20443;-73
2021/03/20 07:42:21;;;;;;;8.13;5.37;;;;;;;;;;5102821;28;20474;-73
2021/03/20 07:44:50;;;;;;;10.13;5.43;;;;;;;;;;5119991;28;20652;-74
2021/03/20 07:47:18;;;;;;;6.47;4.90;;;;;;;;;;5114038;28;20551;-73
2021/03/20 07:49:46;;;;;;;8.37;4.80;;;;;;;;;;5119754;27;20447;-74
2021/03/20 07:52:21;;;;;;;8.00;5.13;;;;;;;;;;5119656;27;20538;-74
2021/03/20 07:54:48;;;;;;;8.60;5.90;;;;;;;;;;5104335;28;21041;-74
2021/03/20 07:57:16;;;;;;;5.80;4.43;;;;;;;;;;5100717;28;20475;-74
2021/03/20 07:59:44;;;;;;;7.47;5.20;;;;;;;;;;5115692;28;20494;-74
2021/03/20 08:02:14;;;;;;;7.10;5.57;;;;;;;;;;5115460;28;20515;-72
2021/03/20 08:04:50;;;;;;;7.43;4.77;;;;;;;;;;5110713;28;20975;-72
2021/03/20 08:07:38;;;;;;;5.40;4.50;;;;;;;;;;5112827;28;20474;-74
2021/03/20 08:10:06;;;;;;;6.93;4.83;;;;;;;;;;5109780;28;20522;-72
2021/03/20 08:12:33;;;;;;;6.97;4.77;;;;;;;;;;5108449;28;20890;-73
2021/03/20 08:15:02;;;;;;;6.23;4.60;;;;;;;;;;5097678;28;20570;-73
2021/03/20 08:17:30;;;;;;;5.67;4.77;;;;;;;;;;5112484;28;20467;-74
2021/03/20 08:19:58;;;;;;;8.67;5.43;;;;;;;;;;5119426;28;20511;-73
2021/03/20 08:22:36;;;;;;;8.90;5.20;;;;;;;;;;5119182;28;20528;-74
2021/03/20 08:25:09;;;;;;;7.37;4.93;;;;;;;;;;5110751;28;20459;-74
2021/03/20 08:27:43;;;;;;;6.93;4.93;;;;;;;;;;5098787;28;20551;-73
2021/03/20 08:30:25;;;;;;;6.53;4.77;;;;;;;;;;5098416;28;20558;-74
2021/03/20 08:33:02;;;;;;;6.57;4.40;;;;;;;;;;5098782;28;20519;-73
2021/03/20 08:35:34;;;;;;;7.03;5.10;;;;;;;;;;5112440;28;20539;-73
2021/03/20 08:38:10;;;;;;;6.13;4.63;;;;;;;;;;5098648;28;20442;-73
2021/03/20 08:40:48;;;;;;;5.23;4.40;;;;;;;;;;5109444;28;20521;-73
2021/03/20 08:43:26;;;;;;;6.87;5.10;;;;;;;;;;5107907;28;20471;-74
2021/03/20 08:45:56;;;;;;;7.40;4.87;;;;;;;;;;5100024;28;20489;-74
2021/03/20 08:48:30;;;;;;;6.30;4.67;;;;;;;;;;5107279;28;20443;-73
2021/03/20 08:51:08;;;;;;;6.33;4.93;;;;;;;;;;5118986;28;20529;-73
2021/03/20 08:53:42;;;;;;;7.17;5.10;;;;;;;;;;5118397;28;20449;-73
2021/03/20 08:56:39;;;;;;;6.83;4.50;;;;;;;;;;5118468;27;20578;-71
2021/03/20 08:59:09;;;;;;;8.77;4.47;;;;;;;;;;5085707;28;20443;-71
2021/03/20 09:01:38;;;;;;;6.53;3.77;;;;;;;;;;5109863;28;20514;-72
2021/03/20 09:04:07;;;;;;;5.93;3.97;;;;;;;;;;5098145;28;20448;-72
2021/03/20 09:06:38;;;;;;;7.23;4.33;;;;;;;;;;5098225;28;20511;-72
2021/03/20 09:09:07;;;;;;;6.90;4.47;;;;;;;;;;5098078;28;20480;-72
2021/03/20 09:11:37;;;;;;;9.87;4.57;;;;;;;;;;5098045;28;20451;-73
2021/03/20 09:14:06;;;;;;;5.43;4.30;;;;;;;;;;5105292;28;20507;-73
2021/03/20 09:16:35;;;;;;;7.20;4.10;;;;;;;;;;5111933;28;20501;-74
2021/03/20 09:19:03;;;;;;;5.60;4.10;;;;;;;;;;5097938;28;20440;-73
2021/03/20 09:21:31;;;;;;;6.37;4.70;;;;;;;;;;5098144;28;20475;-72
2021/03/20 09:24:05;;;;;;;7.20;4.13;;;;;;;;;;5097270;28;20439;-73
2021/03/20 09:26:40;;;;;;;5.10;3.70;;;;;;;;;;5097992;28;20475;-72
2021/03/20 09:29:12;;;;;;;5.00;3.87;;;;;;;;;;5097585;28;20482;-72
2021/03/20 09:31:41;;;;;;;4.53;3.83;;;;;;;;;;5110103;28;20534;-74
2021/03/20 09:34:19;;;;;;;5.47;3.93;;;;;;;;;;5111299;28;20487;-73
2021/03/20 09:36:48;;;;;;;6.13;3.57;;;;;;;;;;5103629;28;20509;-72
2021/03/20 09:39:30;;;;;;;5.10;3.50;;;;;;;;;;5101149;28;21002;-73
2021/03/20 09:42:01;;;;;;;4.77;3.43;;;;;;;;;;5115853;28;20504;-73
2021/03/20 09:44:30;;;;;;;4.17;3.43;;;;;;;;;;5097657;28;20471;-72
2021/03/20 09:47:00;;;;;;;5.80;3.70;;;;;;;;;;5109852;28;20439;-74
2021/03/20 09:49:38;;;;;;;4.80;3.53;;;;;;;;;;5110761;28;20439;-74
2021/03/20 09:52:07;;;;;;;4.97;3.47;;;;;;;;;;5104029;28;20470;-74
2021/03/20 09:54:42;;;;;;;5.43;3.40;;;;;;;;;;5119006;28;20978;-73
2021/03/20 09:57:28;;;;;;;4.80;3.37;;;;;;;;;;5121800;28;20430;-73
2021/03/20 09:59:57;;;;;;;4.90;3.03;;;;;;;;;;5121595;28;20478;-73
2021/03/20 10:02:34;;;;;;;4.03;3.47;;;;;;;;;;5122027;28;20485;-74
2021/03/20 10:05:04;;;;;;;3.93;3.10;;;;;;;;;;5117398;27;21013;-73
2021/03/20 10:07:32;;;;;;;3.73;3.30;;;;;;;;;;5101329;28;20443;-74
2021/03/20 10:10:01;;;;;;;4.60;2.83;;;;;;;;;;5101022;28;20889;-74
2021/03/20 10:12:30;;;;;;;4.73;3.07;;;;;;;;;;5100972;28;20472;-73
2021/03/20 10:15:04;;;;;;;3.53;2.90;;;;;;;;;;5101251;28;20225;-74
2021/03/20 10:17:32;;;;;;;4.27;3.37;;;;;;;;;;5115308;28;20965;-74
2021/03/20 10:20:09;;;;;;;4.13;3.10;;;;;;;;;;5101079;28;20865;-74
2021/03/20 10:22:45;;;;;;;3.77;3.30;;;;;;;;;;5113027;28;20201;-74
2021/03/20 10:25:13;;;;;;;5.27;3.43;;;;;;;;;;5121420;28;20254;-73
2021/03/20 10:27:42;;;;;;;6.83;3.50;;;;;;;;;;5121435;27;20292;-73
2021/03/20 10:30:15;;;;;;;4.83;3.57;;;;;;;;;;5121213;28;20233;-73
2021/03/20 10:32:55;;;;;;;4.73;3.03;;;;;;;;;;5121596;28;20254;-73
2021/03/20 10:35:25;;;;;;;3.97;3.03;;;;;;;;;;5110185;27;20581;-73
2021/03/20 10:37:53;;;;;;;4.37;3.10;;;;;;;;;;5100803;28;20708;-73
2021/03/20 10:40:22;;;;;;;5.37;3.00;;;;;;;;;;5118826;28;20204;-73
2021/03/20 10:42:51;;;;;;;3.30;2.83;;;;;;;;;;5102190;27;20740;-73
2021/03/20 10:45:26;;;;;;;5.50;3.13;;;;;;;;;;5101749;28;20257;-74
2021/03/20 10:47:59;;;;;;;3.87;3.07;;;;;;;;;;5100981;28;20231;-73
2021/03/20 10:50:29;;;;;;;4.10;3.07;;;;;;;;;;5100768;28;20240;-72
2021/03/20 10:52:58;;;;;;;3.33;2.90;;;;;;;;;;5101287;28;20217;-71
2021/03/20 10:55:30;;;;;;;3.23;2.77;;;;;;;;;;5109352;28;20673;-72
2021/03/20 10:57:58;;;;;;;3.43;2.93;;;;;;;;;;5109696;28;20224;-72
2021/03/20 11:00:29;;;;;;;4.60;2.80;;;;;;;;;;5112090;28;20908;-72
2021/03/20 11:03:07;;;;;;;4.03;2.90;;;;;;;;;;5108428;28;20289;-72
2021/03/20 11:05:34;;;;;;;3.57;2.77;;;;;;;;;;5107939;28;20217;-72
2021/03/20 11:08:04;;;;;;;3.87;3.00;;;;;;;;;;5111375;28;20199;-73
2021/03/20 11:10:32;;;;;;;5.57;3.17;;;;;;;;;;5113195;28;20225;-73
2021/03/20 11:13:04;;;;;;;4.57;3.43;;;;;;;;;;5111927;28;20233;-73
2021/03/20 11:15:33;;;;;;;3.50;3.10;;;;;;;;;;5111949;28;20313;-72
2021/03/20 11:18:01;;;;;;;7.23;3.60;;;;;;;;;;5109094;28;20205;-72
2021/03/20 11:20:31;;;;;;;5.40;2.97;;;;;;;;;;5107308;28;20255;-72
2021/03/20 11:22:58;;;;;;;3.77;3.20;;;;;;;;;;5106671;28;20288;-72
2021/03/20 11:25:33;;;;;;;4.57;3.07;;;;;;;;;;5108177;28;20684;-73
2021/03/20 11:28:01;;;;;;;4.63;3.60;;;;;;;;;;5101093;28;20236;-73
2021/03/20 11:30:32;;;;;;;4.93;3.20;;;;;;;;;;5111985;28;20228;-73
2021/03/20 11:33:01;;;;;;;5.33;2.87;;;;;;;;;;5111489;27;20280;-72
2021/03/20 11:35:29;;;;;;;3.57;3.27;;;;;;;;;;5112100;28;20225;-72
2021/03/20 11:38:00;;;;;;;3.53;3.10;;;;;;;;;;5120585;28;20236;-72
2021/03/20 11:40:29;;;;;;;3.47;3.17;;;;;;;;;;5102060;28;20535;-73
2021/03/20 11:42:58;;;;;;;3.43;2.97;;;;;;;;;;5101379;28;20229;-73
2021/03/20 11:45:27;;;;;;;4.13;3.17;;;;;;;;;;5100846;28;20232;-73
2021/03/20 11:47:56;;;;;;;6.17;3.23;;;;;;;;;;5105986;28;20206;-73
2021/03/20 11:50:27;;;;;;;3.70;2.73;;;;;;;;;;5106296;28;20212;-73
2021/03/20 11:52:55;;;;;;;5.27;2.90;;;;;;;;;;5120084;28;20243;-73
2021/03/20 11:55:28;;;;;;;3.80;2.73;;;;;;;;;;5119437;28;20256;-74
2021/03/20 11:57:59;;;;;;;3.93;3.23;;;;;;;;;;5117844;28;20227;-73
2021/03/20 12:00:31;;;;;;;5.73;2.70;;;;;;;;;;5105235;28;20201;-74
2021/03/20 12:02:59;;;;;;;3.90;3.10;;;;;;;;;;5101654;28;20629;-73
2021/03/20 12:05:28;;;;;;;7.87;3.53;;;;;;;;;;5108771;28;20221;-73
2021/03/20 12:08:14;;;;;;;3.80;2.80;;;;;;;;;;5099263;28;20673;-74
2021/03/20 12:10:53;;;;;;;3.00;2.77;;;;;;;;;;5099421;28;20209;-74
2021/03/20 12:13:36;;;;;;;5.13;3.07;;;;;;;;;;5099219;28;20205;-74
2021/03/20 12:16:03;;;;;;;3.37;2.87;;;;;;;;;;5105970;28;20264;-74
2021/03/20 12:18:32;;;;;;;4.20;2.93;;;;;;;;;;5110791;28;20208;-74
2021/03/20 12:21:04;;;;;;;5.23;2.97;;;;;;;;;;5105567;28;20732;-73
2021/03/20 12:23:32;;;;;;;4.33;2.80;;;;;;;;;;5119251;28;20211;-73
2021/03/20 12:26:02;;;;;;;3.27;2.97;;;;;;;;;;5119614;28;20224;-74
2021/03/20 12:28:34;;;;;;;3.53;2.73;;;;;;;;;;5119127;28;20735;-73
2021/03/20 12:31:26;;;;;;;3.03;2.73;;;;;;;;;;5119432;28;20458;-74
2021/03/20 12:33:55;;;;;;;2.87;2.50;;;;;;;;;;5117584;28;20259;-74
2021/03/20 12:36:31;;;;;;;4.93;3.23;;;;;;;;;;5109293;28;20711;-74
2021/03/20 12:38:58;;;;;;;3.03;2.80;;;;;;;;;;5113479;28;20236;-74
2021/03/20 12:41:27;;;;;;;4.33;2.90;;;;;;;;;;5119000;28;20262;-74
2021/03/20 12:44:05;;;;;;;3.20;2.90;;;;;;;;;;5119361;28;20238;-74
2021/03/20 12:46:32;;;;;;;2.83;2.63;;;;;;;;;;5119167;28;20201;-74
2021/03/20 12:49:00;;;;;;;3.93;3.07;;;;;;;;;;5099013;28;20569;-73
2021/03/20 12:51:27;;;;;;;4.47;3.10;;;;;;;;;;5098853;28;20233;-73
2021/03/20 12:53:55;;;;;;;3.43;3.03;;;;;;;;;;5098210;28;20649;-73
2021/03/20 12:56:22;;;;;;;3.03;2.60;;;;;;;;;;5116963;28;20252;-73
2021/03/20 12:58:50;;;;;;;3.20;2.73;;;;;;;;;;5118875;27;20652;-74
2021/03/20 13:01:17;;;;;;;4.20;3.20;;;;;;;;;;5120288;27;20304;-74
2021/03/20 13:03:44;;;;;;;3.13;2.80;;;;;;;;;;5133827;27;20200;-74
2021/03/20 13:06:12;;;;;;;3.77;3.07;;;;;;;;;;5135338;27;20216;-74
2021/03/20 13:08:39;;;;;;;4.23;3.07;;;;;;;;;;5126494;27;20245;-74
2021/03/20 13:11:08;;;;;;;3.43;2.93;;;;;;;;;;5121872;27;20236;-73
2021/03/20 13:13:35;;;;;;;3.50;2.67;;;;;;;;;;5123408;27;20204;-73
2021/03/20 13:16:03;;;;;;;4.50;2.73;;;;;;;;;;5117533;28;20248;-74
2021/03/20 13:18:39;;;;;;;2.73;2.50;;;;;;;;;;5117498;27;20375;-73
2021/03/20 13:21:07;;;;;;;2.50;2.30;;;;;;;;;;5129337;27;20223;-72
2021/03/20 13:23:34;;;;;;;6.53;3.03;;;;;;;;;;5118802;27;20224;-74
2021/03/20 13:26:01;;;;;;;4.10;2.87;;;;;;;;;;5108668;28;20220;-74
2021/03/20 13:28:29;;;;;;;3.23;2.70;;;;;;;;;;5114606;28;20245;-74
2021/03/20 13:30:56;;;;;;;7.07;3.10;;;;;;;;;;5111662;28;20196;-72
2021/03/20 13:33:23;;;;;;;3.50;2.87;;;;;;;;;;5109860;28;20569;-73
2021/03/20 13:35:50;;;;;;;3.50;2.90;;;;;;;;;;5104375;28;20257;-73
2021/03/20 13:38:18;;;;;;;3.20;2.90;;;;;;;;;;5104377;28;20247;-74
2021/03/20 13:40:45;;;;;;;3.50;2.93;;;;;;;;;;5111558;28;20669;-72
2021/03/20 13:43:12;;;;;;;3.80;3.40;;;;;;;;;;5097567;28;20685;-72
2021/03/20 13:45:41;;;;;;;4.63;2.77;;;;;;;;;;5110925;28;20323;-73
2021/03/20 13:48:08;;;;;;;3.67;3.07;;;;;;;;;;5100249;28;20264;-73
2021/03/20 13:50:36;;;;;;;3.00;2.70;;;;;;;;;;5102294;28;20196;-74
2021/03/20 13:53:04;;;;;;;3.37;2.67;;;;;;;;;;5106603;28;20196;-73
2021/03/20 13:55:31;;;;;;;3.70;2.53;;;;;;;;;;5098521;28;20260;-73
2021/03/20 13:57:58;;;;;;;2.80;2.50;;;;;;;;;;5100778;28;20240;-73
2021/03/20 14:00:25;;;;;;;2.70;2.33;;;;;;;;;;5097712;28;20243;-73
2021/03/20 14:02:53;;;;;;;2.63;2.43;;;;;;;;;;5103079;28;20236;-72
2021/03/20 14:05:21;;;;;;;3.83;2.57;;;;;;;;;;5117820;28;20234;-73
2021/03/20 14:07:48;;;;;;;2.80;2.43;;;;;;;;;;5118260;28;20567;-72
2021/03/20 14:10:17;;;;;;;4.03;2.60;;;;;;;;;;5100701;28;20207;-73
2021/03/20 14:12:45;;;;;;;3.77;2.27;;;;;;;;;;5097644;28;20201;-71
2021/03/20 14:15:13;;;;;;;2.87;2.13;;;;;;;;;;5097700;28;20260;-71
2021/03/20 14:17:40;;;;;;;2.53;1.93;;;;;;;;;;5111546;28;20217;-72
2021/03/20 14:20:10;;;;;;;2.53;2.03;;;;;;;;;;5105593;28;20232;-72
2021/03/20 14:22:37;;;;;;;3.57;3.30;;;;;;;;;;5118161;27;20204;-70
2021/03/20 14:25:06;;;;;;;2.30;2.10;;;;;;;;;;5117627;28;20228;-72
2021/03/20 14:27:33;;;;;;;4.73;2.53;;;;;;;;;;5117795;28;20265;-71
2021/03/20 14:30:00;;;;;;;2.73;2.50;;;;;;;;;;5117670;28;20237;-72
2021/03/20 14:32:27;;;;;;;2.47;2.27;;;;;;;;;;5117870;28;20752;-72
2021/03/20 14:34:54;;;;;;;4.57;2.37;;;;;;;;;;5113940;28;20615;-72
2021/03/20 14:37:22;;;;;;;2.60;2.20;;;;;;;;;;5109873;28;20312;-71
2021/03/20 14:39:53;;;;;;;3.23;2.27;;;;;;;;;;5119274;28;20233;-71
2021/03/20 14:42:20;;;;;;;2.40;2.17;;;;;;;;;;5121547;28;20208;-71
2021/03/20 14:44:47;;;;;;;2.30;2.10;;;;;;;;;;5115573;28;20655;-74
2021/03/20 14:47:14;;;;;;;3.37;2.33;;;;;;;;;;5115224;28;20280;-73
2021/03/20 14:49:48;;;;;;;2.47;2.23;;;;;;;;;;5111642;28;20666;-74
2021/03/20 14:52:15;;;;;;;3.50;2.27;;;;;;;;;;5114145;28;20288;-73
2021/03/20 14:54:43;;;;;;;3.53;2.03;;;;;;;;;;5113631;28;20252;-73
2021/03/20 14:57:10;;;;;;;4.00;2.40;;;;;;;;;;5112585;28;20317;-76
2021/03/20 14:59:37;;;;;;;3.57;2.50;;;;;;;;;;5110412;28;20224;-75
2021/03/20 15:02:05;;;;;;;3.43;2.40;;;;;;;;;;5112472;28;20565;-72